Jeudi 03 Dcembre 2020
16H05 UTC - 17H05 CET

Tableau Semaine

 /   
Donnes mto - Semaine 30/11/20 - 06/12/20 (S 49) - Petite France - Strasbourg - Alsace - France     153 m niveau au-dessus de la mer
Donnes mto: Semaine 30/11/20 - 06/12/20 (S 49)
Date Horaire Temp. E. Hum. E. P.atmo. Pluie Vent Direction P. de rose Temp au vent Rafales
30/11/2020 00:00 -1,2 C 86 % 1024 hPa 0,0 mm 0 km/h (0 Bft) N -3 C -1,2 C 0,0 km/h (0 Bft)
30/11/2020 01:00 -1,3 C 87 % 1024 hPa 0,0 mm 0 km/h (0 Bft) N -3 C -1,3 C 0,0 km/h (0 Bft)
30/11/2020 02:00 -1,4 C 88 % 1024 hPa 0,0 mm 0 km/h (0 Bft) N -3 C -1,4 C 0,0 km/h (0 Bft)
30/11/2020 03:00 -1,8 C 89 % 1024 hPa 0,0 mm 0 km/h (0 Bft) N -3 C -1,8 C 0,0 km/h (0 Bft)
30/11/2020 04:00 -2,4 C 89 % 1024 hPa 0,0 mm 0 km/h (0 Bft) N -4 C -2,4 C 0,0 km/h (0 Bft)
30/11/2020 05:00 -2,6 C 90 % 1024 hPa 0,0 mm 0 km/h (0 Bft) N -4 C -2,6 C 0,0 km/h (0 Bft)
30/11/2020 06:00 -2,8 C 90 % 1025 hPa 0,0 mm 0 km/h (0 Bft) N -4 C -2,8 C 0,0 km/h (0 Bft)
30/11/2020 07:00 -3,0 C 90 % 1025 hPa 0,0 mm 0 km/h (0 Bft) N -4 C -3,0 C 0,0 km/h (0 Bft)
30/11/2020 08:00 -3,0 C 90 % 1025 hPa 0,0 mm 0 km/h (0 Bft) N -4 C -3,0 C 0,0 km/h (0 Bft)
30/11/2020 09:00 -2,4 C 91 % 1026 hPa 0,0 mm 0 km/h (0 Bft) N -4 C -2,4 C 0,0 km/h (0 Bft)
30/11/2020 10:00 -1,8 C 91 % 1026 hPa 0,0 mm 0 km/h (0 Bft) N -3 C -1,8 C 0,0 km/h (0 Bft)
30/11/2020 11:00 -1,3 C 91 % 1026 hPa 0,0 mm 0 km/h (0 Bft) N -3 C -1,3 C 0,0 km/h (0 Bft)
30/11/2020 12:00 -0,3 C 90 % 1025 hPa 0,0 mm 0 km/h (0 Bft) N -2 C -0,3 C 0,0 km/h (0 Bft)
30/11/2020 13:00 2,0 C 87 % 1025 hPa 0,0 mm 0 km/h (0 Bft) N 0 C 2,0 C 0,0 km/h (0 Bft)
30/11/2020 14:00 3,2 C 79 % 1024 hPa 0,0 mm 0 km/h (0 Bft) N -0 C 3,2 C 0,0 km/h (0 Bft)
30/11/2020 15:00 1,9 C 79 % 1024 hPa 0,0 mm 0 km/h (0 Bft) O-SO -1 C 1,9 C 0,1 km/h (0 Bft)
30/11/2020 16:00 0,7 C 83 % 1024 hPa 0,0 mm 0 km/h (0 Bft) N -2 C 0,7 C 0,0 km/h (0 Bft)
30/11/2020 17:00 -0,2 C 85 % 1023 hPa 0,0 mm 0 km/h (0 Bft) N -2 C -0,2 C 0,0 km/h (0 Bft)
30/11/2020 18:00 -0,7 C 87 % 1023 hPa 0,0 mm 0 km/h (0 Bft) N -3 C -0,7 C 0,0 km/h (0 Bft)
30/11/2020 19:00 -1,0 C 88 % 1023 hPa 0,0 mm 0 km/h (0 Bft) N -3 C -1,0 C 0,0 km/h (0 Bft)
30/11/2020 20:00 -1,0 C 88 % 1023 hPa 0,0 mm 0 km/h (0 Bft) N -3 C -1,0 C 0,0 km/h (0 Bft)
30/11/2020 21:00 -0,7 C 89 % 1022 hPa 0,0 mm 0 km/h (0 Bft) N -2 C -0,7 C 0,0 km/h (0 Bft)
30/11/2020 22:00 0,1 C 89 % 1021 hPa 0,0 mm 0 km/h (0 Bft) N -2 C 0,1 C 0,0 km/h (0 Bft)
30/11/2020 23:00 0,5 C 88 % 1020 hPa 0,5 mm 1 km/h (0 Bft) S-SE -1 C 0,5 C 0,9 km/h (0 Bft)
01/12/2020 00:00 0,9 C 89 % 1019 hPa 1,0 mm 1 km/h (0 Bft) S -1 C 0,9 C 0,8 km/h (0 Bft)
01/12/2020 01:00 1,1 C 89 % 1018 hPa 0,5 mm 2 km/h (1 Bft) S -0 C 0,8 C 1,7 km/h (1 Bft)
01/12/2020 02:00 0,9 C 90 % 1017 hPa 0,5 mm 5 km/h (1 Bft) S-SE -1 C -0,6 C 5,5 km/h (1 Bft)
01/12/2020 03:00 1,0 C 90 % 1016 hPa 0,0 mm 2 km/h (1 Bft) S-SE -0 C 0,7 C 2,0 km/h (1 Bft)
01/12/2020 04:00 1,1 C 90 % 1016 hPa 0,5 mm 3 km/h (1 Bft) S-SE -0 C 0,8 C 3,5 km/h (1 Bft)
01/12/2020 05:00 1,1 C 90 % 1015 hPa 0,5 mm 2 km/h (1 Bft) S-SE -0 C 1,0 C 1,7 km/h (1 Bft)
01/12/2020 06:00 1,0 C 91 % 1015 hPa 0,5 mm 2 km/h (1 Bft) S-SE -0 C 0,9 C 1,8 km/h (1 Bft)
01/12/2020 07:00 0,9 C 91 % 1015 hPa 0,5 mm 1 km/h (0 Bft) S-SE -0 C 0,9 C 0,8 km/h (0 Bft)
01/12/2020 08:00 1,2 C 91 % 1015 hPa 0,5 mm 1 km/h (0 Bft) S -0 C 1,2 C 0,5 km/h (0 Bft)
01/12/2020 09:00 1,5 C 91 % 1014 hPa 0,0 mm 0 km/h (0 Bft) N 0 C 1,5 C 0,0 km/h (0 Bft)
01/12/2020 10:00 1,8 C 91 % 1015 hPa 0,0 mm 0 km/h (0 Bft) S 1 C 1,8 C 0,4 km/h (0 Bft)
01/12/2020 11:00 2,2 C 91 % 1015 hPa 0,0 mm 1 km/h (0 Bft) N-NE 1 C 2,1 C 1,3 km/h (1 Bft)
01/12/2020 12:00 2,9 C 91 % 1015 hPa 0,5 mm 0 km/h (0 Bft) N 2 C 2,9 C 0,0 km/h (0 Bft)
01/12/2020 13:00 3,2 C 91 % 1014 hPa 0,5 mm 0 km/h (0 Bft) S 2 C 3,2 C 0,3 km/h (0 Bft)
01/12/2020 14:00 3,2 C 90 % 1014 hPa 0,5 mm 0 km/h (0 Bft) N 2 C 3,2 C 0,3 km/h (0 Bft)
01/12/2020 15:00 3,3 C 91 % 1015 hPa 0,0 mm 0 km/h (0 Bft) N 2 C 3,3 C 0,0 km/h (0 Bft)
01/12/2020 16:00 3,2 C 91 % 1015 hPa 0,0 mm 0 km/h (0 Bft) S 2 C 3,2 C 0,1 km/h (0 Bft)
01/12/2020 17:00 3,2 C 91 % 1015 hPa 0,0 mm 0 km/h (0 Bft) S-SE 2 C 3,2 C 0,3 km/h (0 Bft)
01/12/2020 18:00 3,2 C 91 % 1015 hPa 0,0 mm 0 km/h (0 Bft) N 2 C 3,2 C 0,0 km/h (0 Bft)
01/12/2020 19:00 3,2 C 91 % 1016 hPa 0,0 mm 0 km/h (0 Bft) N 2 C 3,2 C 0,0 km/h (0 Bft)
01/12/2020 20:00 3,1 C 91 % 1016 hPa 0,0 mm 0 km/h (0 Bft) N 2 C 3,1 C 0,0 km/h (0 Bft)
01/12/2020 21:00 3,1 C 91 % 1016 hPa 0,0 mm 0 km/h (0 Bft) N 2 C 3,1 C 0,0 km/h (0 Bft)
01/12/2020 22:00 3,1 C 91 % 1016 hPa 0,0 mm 0 km/h (0 Bft) N 2 C 3,1 C 0,0 km/h (0 Bft)
01/12/2020 23:00 3,2 C 91 % 1016 hPa 0,0 mm 0 km/h (0 Bft) N 2 C 3,2 C 0,0 km/h (0 Bft)
02/12/2020 00:00 3,4 C 91 % 1016 hPa 0,0 mm 0 km/h (0 Bft) N-NE 2 C 3,4 C 0,3 km/h (0 Bft)
02/12/2020 01:00 3,2 C 91 % 1016 hPa 0,0 mm 0 km/h (0 Bft) NE 2 C 3,2 C 0,4 km/h (0 Bft)
02/12/2020 02:00 3,0 C 91 % 1016 hPa 0,0 mm 0 km/h (0 Bft) N 2 C 3,0 C 0,0 km/h (0 Bft)
02/12/2020 03:00 2,8 C 91 % 1016 hPa 0,0 mm 0 km/h (0 Bft) N 2 C 2,8 C 0,0 km/h (0 Bft)
02/12/2020 04:00 2,6 C 91 % 1016 hPa 0,0 mm 0 km/h (0 Bft) NE 1 C 2,6 C 0,1 km/h (0 Bft)
02/12/2020 05:00 2,2 C 91 % 1015 hPa 0,0 mm 1 km/h (0 Bft) N-NE 1 C 2,2 C 0,8 km/h (0 Bft)
02/12/2020 06:00 2,2 C 91 % 1015 hPa 0,0 mm 2 km/h (1 Bft) N-NE 1 C 1,7 C 3,0 km/h (1 Bft)
02/12/2020 07:00 2,2 C 90 % 1015 hPa 0,0 mm 4 km/h (1 Bft) N-NE 1 C 1,6 C 7,5 km/h (2 Bft)
02/12/2020 08:00 2,3 C 90 % 1015 hPa 0,0 mm 3 km/h (1 Bft) N-NE 1 C 1,6 C 4,2 km/h (1 Bft)
02/12/2020 09:00 2,3 C 90 % 1015 hPa 0,0 mm 7 km/h (2 Bft) N-NE 1 C 0,5 C 9,9 km/h (2 Bft)
02/12/2020 10:00 2,6 C 90 % 1015 hPa 0,0 mm 2 km/h (1 Bft) N-NE 1 C 2,3 C 3,2 km/h (1 Bft)
02/12/2020 11:00 3,1 C 89 % 1015 hPa 0,0 mm 2 km/h (1 Bft) NE 1 C 3,1 C 2,8 km/h (1 Bft)
02/12/2020 12:00 3,3 C 88 % 1014 hPa 0,0 mm 2 km/h (1 Bft) NE 1 C 3,2 C 1,6 km/h (1 Bft)
02/12/2020 13:00 3,4 C 87 % 1013 hPa 0,0 mm 2 km/h (1 Bft) NE 1 C 3,1 C 1,7 km/h (1 Bft)
02/12/2020 14:00 3,2 C 87 % 1013 hPa 0,0 mm 2 km/h (1 Bft) N-NE 1 C 3,0 C 1,7 km/h (1 Bft)
02/12/2020 15:00 3,0 C 87 % 1013 hPa 0,0 mm 0 km/h (0 Bft) N-NE 1 C 3,0 C 0,3 km/h (0 Bft)
02/12/2020 16:00 2,7 C 87 % 1013 hPa 0,0 mm 1 km/h (0 Bft) N-NE 1 C 2,7 C 0,5 km/h (0 Bft)
02/12/2020 17:00 2,4 C 87 % 1013 hPa 0,0 mm 0 km/h (0 Bft) N-NO 1 C 2,4 C 0,2 km/h (0 Bft)
02/12/2020 18:00 2,2 C 87 % 1013 hPa 0,0 mm 0 km/h (0 Bft) N 0 C 2,2 C 0,4 km/h (0 Bft)
02/12/2020 19:00 2,1 C 87 % 1013 hPa 0,0 mm 0 km/h (0 Bft) N 0 C 2,1 C 0,0 km/h (0 Bft)
02/12/2020 20:00 2,1 C 87 % 1013 hPa 0,0 mm 0 km/h (0 Bft) N-NO 0 C 2,1 C 0,1 km/h (0 Bft)
02/12/2020 21:00 2,1 C 86 % 1013 hPa 0,0 mm 0 km/h (0 Bft) N 0 C 2,1 C 0,0 km/h (0 Bft)
02/12/2020 22:00 2,0 C 85 % 1012 hPa 0,0 mm 0 km/h (0 Bft) N -0 C 2,0 C 0,0 km/h (0 Bft)
02/12/2020 23:00 2,0 C 86 % 1012 hPa 0,0 mm 0 km/h (0 Bft) N -0 C 2,0 C 0,0 km/h (0 Bft)
03/12/2020 00:00 2,1 C 86 % 1012 hPa 0,0 mm 0 km/h (0 Bft) N 0 C 2,1 C 0,0 km/h (0 Bft)
Min-Date _ 30/11/20 30/11/20 02/12/20 - 30/11/20 - 30/11/20 01/12/20 30/11/20
_ Min-Heure 06:55 14:40 22:05 - 00:00 - 06:55 02:25 00:00
Minimum _ -3,1 C 78 % 1012 hPa - 0 km/h (0 Bft) - -5 C -8,4 C 0,0 km/h (0 Bft)
Max-Date _ 30/11/20 30/11/20 30/11/20 01/12/20 02/12/20 - 02/12/20 30/11/20 02/12/20
_ Max-Heure 14:25 09:25 08:50 00:20 09:00 - 00:25 14:25 09:00
Maximum _ 3,4 C 91 % 1026 hPa 1,0 mm 24 km/h
N-NE (4 Bft)
- 2 C 3,4 C 25,6 km/h
N-NE (4 Bft)
Moyenne _ 1,3 C 89 % 1018 hPa #6,7 mm 1 km/h (0 Bft) S-SE -0 C 1,2 C 0,8 km/h (0 Bft)

Haut de la page